Americus, Georgia
Current Conditions -  °F | °C
As of 9:35 AM on Wednesday 22 Oct 2014 (Local Time) from KACJ Reporting Station
Clear Clear  
Wind Chill: 55°   Ceiling: Unl
Heat Index: 55°   Visibility: 10mi
Dew Point: 46°   Wind: 7mph
Humidity: 72%   Direction: 30°NNE
Pressure: 30.11"   Gusts: NA
Location:  32.07°N, 84.23°W
Report Text: KACJ 221335Z AUTO 03006KT 10SM CLR 13/08 A3011 RMK AO2
Loading
Personal Weather Stations






























Interactive Weather Map
Tropical Storm Tracking
New forecast layout! Learn more

10-Day Weather Forecast

Advertisements
Track Severe Weather on mobile